Aviation Digital Data Service (ADDS)

Output produced by METARs form (1911 UTC 19 April 2019)
found at http://www.aviationweather.gov/metar/data/
 
METAR text: ZWSH 191900Z AUTO 31005MPS 7000 // ////// 20/M04 Q1011
Conditions at: ZWSH (KASHI , CN) observed 1900 UTC 19 April 2019
Temperature: 20.0°C (68°F)
Dewpoint: -4.0°C (25°F) [RH = 19%]
Pressure (altimeter): 29.85 inches Hg (1011.0 mb)
Winds: from the NW (310 degrees) at 12 MPH (10 knots; 5.1 m/s)
Visibility: 4 miles ( 7 km)
Ceiling: unknown
Clouds: missing
Weather: no significant weather observed at this time

METAR text: ZWSH 191800Z AUTO 31005MPS 6000 // ////// 20/M03 Q1011
Conditions at: ZWSH (KASHI , CN) observed 1800 UTC 19 April 2019
Temperature: 20.0°C (68°F)
Dewpoint: -3.0°C (27°F) [RH = 21%]
Pressure (altimeter): 29.85 inches Hg (1011.0 mb)
Winds: from the NW (310 degrees) at 12 MPH (10 knots; 5.1 m/s)
Visibility: 4 miles ( 6 km)
Ceiling: unknown
Clouds: missing
Weather: no significant weather observed at this time

METAR text: ZWSH 191700Z AUTO 32004MPS 6000 // ////// 20/M02 Q1011
Conditions at: ZWSH (KASHI , CN) observed 1700 UTC 19 April 2019
Temperature: 20.0°C (68°F)
Dewpoint: -2.0°C (28°F) [RH = 23%]
Pressure (altimeter): 29.85 inches Hg (1011.0 mb)
Winds: from the NW (320 degrees) at 9 MPH (8 knots; 4.1 m/s)
Visibility: 4 miles ( 6 km)
Ceiling: unknown
Clouds: missing
Weather: no significant weather observed at this time

METAR text: ZWSH 191600Z 33003MPS 7000 NSC 21/M02 Q1011 NOSIG
Conditions at: ZWSH (KASHI , CN) observed 1600 UTC 19 April 2019
Temperature: 21.0°C (70°F)
Dewpoint: -2.0°C (28°F) [RH = 21%]
Pressure (altimeter): 29.85 inches Hg (1011.0 mb)
Winds: from the NNW (330 degrees) at 7 MPH (6 knots; 3.1 m/s)
Visibility: 4 miles ( 7 km)
Ceiling: at least 12,000 feet AGL
Clouds: sky clear below 12,000 feet AGL
Weather: no significant weather observed at this time

METAR text: ZWSH 191500Z 33003MPS 7000 NSC 23/M05 Q1011 NOSIG
Conditions at: ZWSH (KASHI , CN) observed 1500 UTC 19 April 2019
Temperature: 23.0°C (73°F)
Dewpoint: -5.0°C (23°F) [RH = 15%]
Pressure (altimeter): 29.85 inches Hg (1011.0 mb)
Winds: from the NNW (330 degrees) at 7 MPH (6 knots; 3.1 m/s)
Visibility: 4 miles ( 7 km)
Ceiling: at least 12,000 feet AGL
Clouds: sky clear below 12,000 feet AGL
Weather: no significant weather observed at this time

METAR text: ZWSH 191400Z VRB02MPS 7000 NSC 24/M05 Q1010 NOSIG
Conditions at: ZWSH (KASHI , CN) observed 1400 UTC 19 April 2019
Temperature: 24.0°C (75°F)
Dewpoint: -5.0°C (23°F) [RH = 14%]
Pressure (altimeter): 29.82 inches Hg (1010.0 mb)
Winds: variable direction winds at 5 MPH (4 knots; 2.1 m/s)
Visibility: 4 miles ( 7 km)
Ceiling: at least 12,000 feet AGL
Clouds: sky clear below 12,000 feet AGL
Weather: no significant weather observed at this time

METAR text: ZWSH 191300Z 08002MPS 8000 NSC 26/M05 Q1010 NOSIG
Conditions at: ZWSH (KASHI , CN) observed 1300 UTC 19 April 2019
Temperature: 26.0°C (79°F)
Dewpoint: -5.0°C (23°F) [RH = 13%]
Pressure (altimeter): 29.82 inches Hg (1010.0 mb)
Winds: from the E (80 degrees) at 5 MPH (4 knots; 2.1 m/s)
Visibility: 5 miles ( 8 km)
Ceiling: at least 12,000 feet AGL
Clouds: sky clear below 12,000 feet AGL
Weather: no significant weather observed at this time

METAR text: ZWSH 191200Z 14003MPS 090V170 8000 NSC 27/M05 Q1010 NOSIG
Conditions at: ZWSH (KASHI , CN) observed 1200 UTC 19 April 2019
Temperature: 27.0°C (81°F)
Dewpoint: -5.0°C (23°F) [RH = 12%]
Pressure (altimeter): 29.82 inches Hg (1010.0 mb)
Winds: from the SE (140 degrees) at 7 MPH (6 knots; 3.1 m/s)
Visibility: 5 miles ( 8 km)
Ceiling: at least 12,000 feet AGL
Clouds: sky clear below 12,000 feet AGL
Weather: no significant weather observed at this time

METAR text: ZWSH 191100Z 11004MPS CAVOK 28/M05 Q1010 NOSIG
Conditions at: ZWSH (KASHI , CN) observed 1100 UTC 19 April 2019
Temperature: 28.0°C (82°F)
Dewpoint: -5.0°C (23°F) [RH = 11%]
Pressure (altimeter): 29.82 inches Hg (1010.0 mb)
Winds: from the ESE (110 degrees) at 9 MPH (8 knots; 4.1 m/s)
Visibility: 6 or more miles (10+ km)
Ceiling: ceiling and visibility are OK
Clouds: unknown
Weather: no significant weather observed at this time

METAR text: ZWSH 191000Z 12005MPS 090V150 CAVOK 27/M06 Q1011 NOSIG
Conditions at: ZWSH (KASHI , CN) observed 1000 UTC 19 April 2019
Temperature: 27.0°C (81°F)
Dewpoint: -6.0°C (21°F) [RH = 11%]
Pressure (altimeter): 29.85 inches Hg (1011.0 mb)
Winds: from the ESE (120 degrees) at 12 MPH (10 knots; 5.1 m/s)
Visibility: 6 or more miles (10+ km)
Ceiling: ceiling and visibility are OK
Clouds: unknown
Weather: no significant weather observed at this time

METAR text: ZWSH 190900Z 13004MPS 050V180 CAVOK 28/M08 Q1012 NOSIG
Conditions at: ZWSH (KASHI , CN) observed 0900 UTC 19 April 2019
Temperature: 28.0°C (82°F)
Dewpoint: -8.0°C (18°F) [RH =  9%]
Pressure (altimeter): 29.88 inches Hg (1012.0 mb)
Winds: from the SE (130 degrees) at 9 MPH (8 knots; 4.1 m/s)
Visibility: 6 or more miles (10+ km)
Ceiling: ceiling and visibility are OK
Clouds: unknown
Weather: no significant weather observed at this time

METAR text: ZWSH 190800Z 13003MPS 070V160 CAVOK 27/M07 Q1013 NOSIG
Conditions at: ZWSH (KASHI , CN) observed 0800 UTC 19 April 2019
Temperature: 27.0°C (81°F)
Dewpoint: -7.0°C (19°F) [RH = 10%]
Pressure (altimeter): 29.91 inches Hg (1013.0 mb)
Winds: from the SE (130 degrees) at 7 MPH (6 knots; 3.1 m/s)
Visibility: 6 or more miles (10+ km)
Ceiling: ceiling and visibility are OK
Clouds: unknown
Weather: no significant weather observed at this time

METAR text: ZWSH 190700Z VRB02MPS CAVOK 27/M06 Q1014 NOSIG
Conditions at: ZWSH (KASHI , CN) observed 0700 UTC 19 April 2019
Temperature: 27.0°C (81°F)
Dewpoint: -6.0°C (21°F) [RH = 11%]
Pressure (altimeter): 29.94 inches Hg (1014.0 mb)
Winds: variable direction winds at 5 MPH (4 knots; 2.1 m/s)
Visibility: 6 or more miles (10+ km)
Ceiling: ceiling and visibility are OK
Clouds: unknown
Weather: no significant weather observed at this time

METAR text: ZWSH 190600Z 24002MPS 180V320 CAVOK 25/M06 Q1015 NOSIG
Conditions at: ZWSH (KASHI , CN) observed 0600 UTC 19 April 2019
Temperature: 25.0°C (77°F)
Dewpoint: -6.0°C (21°F) [RH = 12%]
Pressure (altimeter): 29.97 inches Hg (1015.0 mb)
Winds: from the WSW (240 degrees) at 5 MPH (4 knots; 2.1 m/s)
Visibility: 6 or more miles (10+ km)
Ceiling: ceiling and visibility are OK
Clouds: unknown
Weather: no significant weather observed at this time

METAR text: ZWSH 190500Z 17002MPS 100V240 CAVOK 24/M05 Q1016 NOSIG
Conditions at: ZWSH (KASHI , CN) observed 0500 UTC 19 April 2019
Temperature: 24.0°C (75°F)
Dewpoint: -5.0°C (23°F) [RH = 14%]
Pressure (altimeter): 30.00 inches Hg (1016.0 mb)
Winds: from the S (170 degrees) at 5 MPH (4 knots; 2.1 m/s)
Visibility: 6 or more miles (10+ km)
Ceiling: ceiling and visibility are OK
Clouds: unknown
Weather: no significant weather observed at this time

METAR text: ZWSH 190400Z 18002MPS 130V220 CAVOK 23/M02 Q1016 NOSIG
Conditions at: ZWSH (KASHI , CN) observed 0400 UTC 19 April 2019
Temperature: 23.0°C (73°F)
Dewpoint: -2.0°C (28°F) [RH = 19%]
Pressure (altimeter): 30.00 inches Hg (1016.0 mb)
Winds: from the S (180 degrees) at 5 MPH (4 knots; 2.1 m/s)
Visibility: 6 or more miles (10+ km)
Ceiling: ceiling and visibility are OK
Clouds: unknown
Weather: no significant weather observed at this time

METAR text: ZWSH 190300Z VRB01MPS CAVOK 22/M05 Q1017 NOSIG
Conditions at: ZWSH (KASHI , CN) observed 0300 UTC 19 April 2019
Temperature: 22.0°C (72°F)
Dewpoint: -5.0°C (23°F) [RH = 16%]
Pressure (altimeter): 30.03 inches Hg (1017.0 mb)
Winds: variable direction winds at 2 MPH (2 knots; 1.0 m/s)
Visibility: 6 or more miles (10+ km)
Ceiling: ceiling and visibility are OK
Clouds: unknown
Weather: no significant weather observed at this time

METAR text: ZWSH 190200Z 31003MPS 9999 FEW040 19/M07 Q1017 NOSIG
Conditions at: ZWSH (KASHI , CN) observed 0200 UTC 19 April 2019
Temperature: 19.0°C (66°F)
Dewpoint: -7.0°C (19°F) [RH = 16%]
Pressure (altimeter): 30.03 inches Hg (1017.0 mb)
Winds: from the NW (310 degrees) at 7 MPH (6 knots; 3.1 m/s)
Visibility: 6 or more miles (10+ km)
Ceiling: at least 12,000 feet AGL
Clouds: few clouds at 4000 feet AGL
Weather: no significant weather observed at this time

METAR text: ZWSH 190100Z 31004MPS 9999 FEW040 15/M07 Q1016 NOSIG
Conditions at: ZWSH (KASHI , CN) observed 0100 UTC 19 April 2019
Temperature: 15.0°C (59°F)
Dewpoint: -7.0°C (19°F) [RH = 21%]
Pressure (altimeter): 30.00 inches Hg (1016.0 mb)
Winds: from the NW (310 degrees) at 9 MPH (8 knots; 4.1 m/s)
Visibility: 6 or more miles (10+ km)
Ceiling: at least 12,000 feet AGL
Clouds: few clouds at 4000 feet AGL
Weather: no significant weather observed at this time

METAR text: ZWSH 190000Z 31005MPS 9999 FEW040 16/M07 Q1016 NOSIG
Conditions at: ZWSH (KASHI , CN) observed 0000 UTC 19 April 2019
Temperature: 16.0°C (61°F)
Dewpoint: -7.0°C (19°F) [RH = 20%]
Pressure (altimeter): 30.00 inches Hg (1016.0 mb)
Winds: from the NW (310 degrees) at 12 MPH (10 knots; 5.1 m/s)
Visibility: 6 or more miles (10+ km)
Ceiling: at least 12,000 feet AGL
Clouds: few clouds at 4000 feet AGL
Weather: no significant weather observed at this time

METAR text: ZWSH 182300Z 31005MPS CAVOK 16/M07 Q1016 NOSIG
Conditions at: ZWSH (KASHI , CN) observed 2300 UTC 18 April 2019
Temperature: 16.0°C (61°F)
Dewpoint: -7.0°C (19°F) [RH = 20%]
Pressure (altimeter): 30.00 inches Hg (1016.0 mb)
Winds: from the NW (310 degrees) at 12 MPH (10 knots; 5.1 m/s)
Visibility: 6 or more miles (10+ km)
Ceiling: ceiling and visibility are OK
Clouds: unknown
Weather: no significant weather observed at this time

METAR text: ZWSH 182200Z 31005MPS 8000 NSC 17/M05 Q1016 NOSIG
Conditions at: ZWSH (KASHI , CN) observed 2200 UTC 18 April 2019
Temperature: 17.0°C (63°F)
Dewpoint: -5.0°C (23°F) [RH = 22%]
Pressure (altimeter): 30.00 inches Hg (1016.0 mb)
Winds: from the NW (310 degrees) at 12 MPH (10 knots; 5.1 m/s)
Visibility: 5 miles ( 8 km)
Ceiling: at least 12,000 feet AGL
Clouds: sky clear below 12,000 feet AGL
Weather: no significant weather observed at this time

METAR text: ZWSH 182100Z 31004MPS 5000 DU NSC 17/00 Q1016 NOSIG
Conditions at: ZWSH (KASHI , CN) observed 2100 UTC 18 April 2019
Temperature: 17.0°C (63°F)
Dewpoint: 0.0°C (32°F) [RH = 32%]
Pressure (altimeter): 30.00 inches Hg (1016.0 mb)
Winds: from the NW (310 degrees) at 9 MPH (8 knots; 4.1 m/s)
Visibility: 3 miles ( 5 km)
Ceiling: at least 12,000 feet AGL
Clouds: sky clear below 12,000 feet AGL
Weather: DU  (widespread dust)

METAR text: ZWSH 182000Z VRB03MPS 6000 NSC 18/01 Q1016 NOSIG
Conditions at: ZWSH (KASHI , CN) observed 2000 UTC 18 April 2019
Temperature: 18.0°C (64°F)
Dewpoint: 1.0°C (34°F) [RH = 32%]
Pressure (altimeter): 30.00 inches Hg (1016.0 mb)
Winds: variable direction winds at 7 MPH (6 knots; 3.1 m/s)
Visibility: 4 miles ( 6 km)
Ceiling: at least 12,000 feet AGL
Clouds: sky clear below 12,000 feet AGL
Weather: no significant weather observed at this time

METAR text: ZWSH 181900Z AUTO VRB04MPS 4600 // ////// 18/00 Q1015
Conditions at: ZWSH (KASHI , CN) observed 1900 UTC 18 April 2019
Temperature: 18.0°C (64°F)
Dewpoint: 0.0°C (32°F) [RH = 30%]
Pressure (altimeter): 29.97 inches Hg (1015.0 mb)
Winds: variable direction winds at 9 MPH (8 knots; 4.1 m/s)
Visibility: 2.86 miles (4.60 km)
Ceiling: unknown
Clouds: missing
Weather: no significant weather observed at this time

METAR text: ZWSH 181800Z AUTO 06005MPS 9999 // ////// 20/M06 Q1015
Conditions at: ZWSH (KASHI , CN) observed 1800 UTC 18 April 2019
Temperature: 20.0°C (68°F)
Dewpoint: -6.0°C (21°F) [RH = 17%]
Pressure (altimeter): 29.97 inches Hg (1015.0 mb)
Winds: from the ENE (60 degrees) at 12 MPH (10 knots; 5.1 m/s)
Visibility: 6 or more miles (10+ km)
Ceiling: unknown
Clouds: missing
Weather: no significant weather observed at this time

METAR text: ZWSH 181700Z AUTO 34005MPS 240V350 9999 // ////// 22/M08 Q1014
Conditions at: ZWSH (KASHI , CN) observed 1700 UTC 18 April 2019
Temperature: 22.0°C (72°F)
Dewpoint: -8.0°C (18°F) [RH = 13%]
Pressure (altimeter): 29.94 inches Hg (1014.0 mb)
Winds: from the NNW (340 degrees) at 12 MPH (10 knots; 5.1 m/s)
Visibility: 6 or more miles (10+ km)
Ceiling: unknown
Clouds: missing
Weather: no significant weather observed at this time

METAR text: ZWSH 181600Z 31004MPS 9999 FEW040 22/M09 Q1014 NOSIG
Conditions at: ZWSH (KASHI , CN) observed 1600 UTC 18 April 2019
Temperature: 22.0°C (72°F)
Dewpoint: -9.0°C (16°F) [RH = 12%]
Pressure (altimeter): 29.94 inches Hg (1014.0 mb)
Winds: from the NW (310 degrees) at 9 MPH (8 knots; 4.1 m/s)
Visibility: 6 or more miles (10+ km)
Ceiling: at least 12,000 feet AGL
Clouds: few clouds at 4000 feet AGL
Weather: no significant weather observed at this time

METAR text: ZWSH 181500Z 26002MPS 230V310 9999 FEW040 22/M07 Q1013 NOSIG
Conditions at: ZWSH (KASHI , CN) observed 1500 UTC 18 April 2019
Temperature: 22.0°C (72°F)
Dewpoint: -7.0°C (19°F) [RH = 14%]
Pressure (altimeter): 29.91 inches Hg (1013.0 mb)
Winds: from the W (260 degrees) at 5 MPH (4 knots; 2.1 m/s)
Visibility: 6 or more miles (10+ km)
Ceiling: at least 12,000 feet AGL
Clouds: few clouds at 4000 feet AGL
Weather: no significant weather observed at this time

METAR text: ZWSH 181400Z VRB01MPS 9999 FEW040 24/M06 Q1012 NOSIG
Conditions at: ZWSH (KASHI , CN) observed 1400 UTC 18 April 2019
Temperature: 24.0°C (75°F)
Dewpoint: -6.0°C (21°F) [RH = 13%]
Pressure (altimeter): 29.88 inches Hg (1012.0 mb)
Winds: variable direction winds at 2 MPH (2 knots; 1.0 m/s)
Visibility: 6 or more miles (10+ km)
Ceiling: at least 12,000 feet AGL
Clouds: few clouds at 4000 feet AGL
Weather: no significant weather observed at this time

METAR text: ZWSH 181300Z 12003MPS 9999 FEW040 26/M07 Q1010 NOSIG
Conditions at: ZWSH (KASHI , CN) observed 1300 UTC 18 April 2019
Temperature: 26.0°C (79°F)
Dewpoint: -7.0°C (19°F) [RH = 11%]
Pressure (altimeter): 29.82 inches Hg (1010.0 mb)
Winds: from the ESE (120 degrees) at 7 MPH (6 knots; 3.1 m/s)
Visibility: 6 or more miles (10+ km)
Ceiling: at least 12,000 feet AGL
Clouds: few clouds at 4000 feet AGL
Weather: no significant weather observed at this time

METAR text: ZWSH 181200Z 12005MPS 9999 FEW040 28/M09 Q1009 NOSIG
Conditions at: ZWSH (KASHI , CN) observed 1200 UTC 18 April 2019
Temperature: 28.0°C (82°F)
Dewpoint: -9.0°C (16°F) [RH =  8%]
Pressure (altimeter): 29.79 inches Hg (1009.0 mb)
Winds: from the ESE (120 degrees) at 12 MPH (10 knots; 5.1 m/s)
Visibility: 6 or more miles (10+ km)
Ceiling: at least 12,000 feet AGL
Clouds: few clouds at 4000 feet AGL
Weather: no significant weather observed at this time

METAR text: ZWSH 181100Z 13004MPS 080V220 9999 FEW040 28/M11 Q1009 NOSIG
Conditions at: ZWSH (KASHI , CN) observed 1100 UTC 18 April 2019
Temperature: 28.0°C (82°F)
Dewpoint: -11.0°C (12°F) [RH =  7%]
Pressure (altimeter): 29.79 inches Hg (1009.0 mb)
Winds: from the SE (130 degrees) at 9 MPH (8 knots; 4.1 m/s)
Visibility: 6 or more miles (10+ km)
Ceiling: at least 12,000 feet AGL
Clouds: few clouds at 4000 feet AGL
Weather: no significant weather observed at this time

METAR text: ZWSH 181000Z 20003MPS 150V240 9999 FEW040 27/M11 Q1009 NOSIG
Conditions at: ZWSH (KASHI , CN) observed 1000 UTC 18 April 2019
Temperature: 27.0°C (81°F)
Dewpoint: -11.0°C (12°F) [RH =  7%]
Pressure (altimeter): 29.79 inches Hg (1009.0 mb)
Winds: from the SSW (200 degrees) at 7 MPH (6 knots; 3.1 m/s)
Visibility: 6 or more miles (10+ km)
Ceiling: at least 12,000 feet AGL
Clouds: few clouds at 4000 feet AGL
Weather: no significant weather observed at this time

METAR text: ZWSH 180900Z 10005MPS 070V140 9999 FEW040 28/M13 Q1009 NOSIG
Conditions at: ZWSH (KASHI , CN) observed 0900 UTC 18 April 2019
Temperature: 28.0°C (82°F)
Dewpoint: -13.0°C ( 9°F) [RH =  6%]
Pressure (altimeter): 29.79 inches Hg (1009.0 mb)
Winds: from the E (100 degrees) at 12 MPH (10 knots; 5.1 m/s)
Visibility: 6 or more miles (10+ km)
Ceiling: at least 12,000 feet AGL
Clouds: few clouds at 4000 feet AGL
Weather: no significant weather observed at this time

METAR text: ZWSH 180800Z VRB02MPS CAVOK 27/M14 Q1010 NOSIG
Conditions at: ZWSH (KASHI , CN) observed 0800 UTC 18 April 2019
Temperature: 27.0°C (81°F)
Dewpoint: -14.0°C ( 7°F) [RH =  6%]
Pressure (altimeter): 29.82 inches Hg (1010.0 mb)
Winds: variable direction winds at 5 MPH (4 knots; 2.1 m/s)
Visibility: 6 or more miles (10+ km)
Ceiling: ceiling and visibility are OK
Clouds: unknown
Weather: no significant weather observed at this time

Forecast for: ZWSH (KASHI , CN)
Text: TAF ZWSH 191509Z 1918/2018 32004MPS 8000 FEW040 TX28/2009Z TN18/2000Z
Forecast period: 1800 UTC 19 April 2019 to 0500 UTC 20 April 2019
Forecast type: FROM: standard forecast or significant change
Winds: from the NW (320 degrees) at 9 MPH (8 knots; 4.1 m/s)
Visibility: 5 miles (8 km)
Ceiling: at least 12,000 feet AGL
Clouds: few clouds at 4000 feet AGL
Weather: no significant weather forecast for this period
Text: BECMG 2005/2006 12004MPS
Forecast period: 0500 to 1800 UTC 20 April 2019
Forecast type: BECOMING: Conditions expected to become as follows by 0600 UTC 20 April 2019
Winds: from the ESE (120 degrees) at 9 MPH (8 knots; 4.1 m/s)
Visibility: 5 miles (8 km)
Ceiling: at least 12,000 feet AGL
Clouds: few clouds at 4000 feet AGL
Weather: no significant weather forecast for this period